sensor_id;sensor_type;location;lat;lon;timestamp;pressure;altitude;pressure_sealevel;temperature;humidity
32083;BME280;18597;48.328;7.932;2024-01-16T00:01:44;99207.81;;;-1.40;100.00
32083;BME280;18597;48.328;7.932;2024-01-16T00:04:10;99211.53;;;-1.46;100.00
32083;BME280;18597;48.328;7.932;2024-01-16T00:06:41;99209.84;;;-1.47;100.00
32083;BME280;18597;48.328;7.932;2024-01-16T00:09:08;99205.47;;;-1.46;100.00
32083;BME280;18597;48.328;7.932;2024-01-16T00:11:41;99211.53;;;-1.46;100.00
32083;BME280;18597;48.328;7.932;2024-01-16T00:14:07;99209.84;;;-1.47;100.00
32083;BME280;18597;48.328;7.932;2024-01-16T00:16:33;99211.53;;;-1.46;100.00
32083;BME280;18597;48.328;7.932;2024-01-16T00:18:59;99207.28;;;-1.28;100.00
32083;BME280;18597;48.328;7.932;2024-01-16T00:21:25;99203.00;;;-1.30;100.00
32083;BME280;18597;48.328;7.932;2024-01-16T00:23:50;99208.34;;;-1.32;100.00
32083;BME280;18597;48.328;7.932;2024-01-16T00:26:21;99205.34;;;-1.43;100.00
32083;BME280;18597;48.328;7.932;2024-01-16T00:28:47;99215.25;;;-1.50;100.00
32083;BME280;18597;48.328;7.932;2024-01-16T00:31:14;99214.44;;;-1.52;100.00
32083;BME280;18597;48.328;7.932;2024-01-16T00:33:40;99211.78;;;-1.50;100.00
32083;BME280;18597;48.328;7.932;2024-01-16T00:36:06;99211.88;;;-1.53;100.00
32083;BME280;18597;48.328;7.932;2024-01-16T00:38:33;99221.72;;;-1.58;100.00
32083;BME280;18597;48.328;7.932;2024-01-16T00:40:59;99216.34;;;-1.55;100.00
32083;BME280;18597;48.328;7.932;2024-01-16T00:43:25;99217.53;;;-1.62;100.00
32083;BME280;18597;48.328;7.932;2024-01-16T00:45:51;99219.47;;;-1.68;100.00
32083;BME280;18597;48.328;7.932;2024-01-16T00:48:17;99212.53;;;-1.69;100.00
32083;BME280;18597;48.328;7.932;2024-01-16T00:50:45;99206.56;;;-1.52;100.00
32083;BME280;18597;48.328;7.932;2024-01-16T00:53:12;99217.38;;;-1.59;100.00
32083;BME280;18597;48.328;7.932;2024-01-16T00:55:37;99216.25;;;-1.74;100.00
32083;BME280;18597;48.328;7.932;2024-01-16T00:58:03;99206.41;;;-1.89;100.00
32083;BME280;18597;48.328;7.932;2024-01-16T01:00:29;99209.31;;;-1.96;100.00
32083;BME280;18597;48.328;7.932;2024-01-16T01:02:57;99207.03;;;-2.03;100.00
32083;BME280;18597;48.328;7.932;2024-01-16T01:05:24;99214.34;;;-1.91;100.00
32083;BME280;18597;48.328;7.932;2024-01-16T01:07:55;99215.22;;;-2.12;100.00
32083;BME280;18597;48.328;7.932;2024-01-16T01:10:21;99214.75;;;-2.22;100.00
32083;BME280;18597;48.328;7.932;2024-01-16T01:12:47;99213.53;;;-2.13;100.00
32083;BME280;18597;48.328;7.932;2024-01-16T01:15:12;99211.13;;;-2.18;100.00
32083;BME280;18597;48.328;7.932;2024-01-16T01:17:40;99210.81;;;-2.32;100.00
32083;BME280;18597;48.328;7.932;2024-01-16T01:20:08;99215.13;;;-2.31;100.00
32083;BME280;18597;48.328;7.932;2024-01-16T01:22:35;99214.31;;;-2.55;100.00
32083;BME280;18597;48.328;7.932;2024-01-16T01:25:03;99205.97;;;-2.65;100.00
32083;BME280;18597;48.328;7.932;2024-01-16T01:27:29;99213.22;;;-2.49;100.00
32083;BME280;18597;48.328;7.932;2024-01-16T01:29:55;99212.41;;;-2.73;100.00
32083;BME280;18597;48.328;7.932;2024-01-16T01:32:21;99215.31;;;-2.81;100.00
32083;BME280;18597;48.328;7.932;2024-01-16T01:34:47;99217.28;;;-2.86;100.00
32083;BME280;18597;48.328;7.932;2024-01-16T01:37:13;99228.88;;;-2.95;100.00
32083;BME280;18597;48.328;7.932;2024-01-16T01:39:40;99229.16;;;-3.02;100.00
32083;BME280;18597;48.328;7.932;2024-01-16T01:42:06;99230.09;;;-3.03;100.00
32083;BME280;18597;48.328;7.932;2024-01-16T01:44:32;99225.97;;;-3.09;100.00
32083;BME280;18597;48.328;7.932;2024-01-16T01:46:58;99226.84;;;-3.10;100.00
32083;BME280;18597;48.328;7.932;2024-01-16T01:49:25;99235.03;;;-2.96;100.00
32083;BME280;18597;48.328;7.932;2024-01-16T01:51:52;99228.94;;;-2.96;100.00
32083;BME280;18597;48.328;7.932;2024-01-16T01:54:19;99231.13;;;-3.08;100.00
32083;BME280;18597;48.328;7.932;2024-01-16T01:56:47;99232.25;;;-3.15;100.00
32083;BME280;18597;48.328;7.932;2024-01-16T01:59:15;99224.19;;;-3.09;100.00
32083;BME280;18597;48.328;7.932;2024-01-16T02:01:46;99232.53;;;-2.99;100.00
32083;BME280;18597;48.328;7.932;2024-01-16T02:04:14;99231.78;;;-3.02;100.00
32083;BME280;18597;48.328;7.932;2024-01-16T02:06:43;99224.34;;;-3.13;100.00
32083;BME280;18597;48.328;7.932;2024-01-16T02:09:10;99229.16;;;-3.26;100.00
32083;BME280;18597;48.328;7.932;2024-01-16T02:11:39;99230.72;;;-3.20;100.00
32083;BME280;18597;48.328;7.932;2024-01-16T02:14:05;99225.97;;;-3.34;100.00
32083;BME280;18597;48.328;7.932;2024-01-16T02:16:38;99225.78;;;-3.53;100.00
32083;BME280;18597;48.328;7.932;2024-01-16T02:19:04;99224.53;;;-3.43;100.00
32083;BME280;18597;48.328;7.932;2024-01-16T02:21:38;99230.25;;;-3.56;100.00
32083;BME280;18597;48.328;7.932;2024-01-16T02:24:06;99230.88;;;-3.75;100.00
32083;BME280;18597;48.328;7.932;2024-01-16T02:26:33;99217.94;;;-3.53;100.00
32083;BME280;18597;48.328;7.932;2024-01-16T02:29:01;99233.44;;;-3.73;100.00
32083;BME280;18597;48.328;7.932;2024-01-16T02:31:28;99218.53;;;-3.70;100.00
32083;BME280;18597;48.328;7.932;2024-01-16T02:33:54;99216.59;;;-3.65;100.00
32083;BME280;18597;48.328;7.932;2024-01-16T02:36:19;99219.59;;;-3.75;100.00
32083;BME280;18597;48.328;7.932;2024-01-16T02:38:45;99223.44;;;-3.87;100.00
32083;BME280;18597;48.328;7.932;2024-01-16T02:41:14;99219.84;;;-4.09;100.00
32083;BME280;18597;48.328;7.932;2024-01-16T02:43:42;99218.56;;;-4.23;100.00
32083;BME280;18597;48.328;7.932;2024-01-16T02:46:08;99232.88;;;-4.36;100.00
32083;BME280;18597;48.328;7.932;2024-01-16T02:48:35;99231.66;;;-4.52;100.00
32083;BME280;18597;48.328;7.932;2024-01-16T02:51:02;99237.34;;;-4.67;100.00
32083;BME280;18597;48.328;7.932;2024-01-16T02:53:29;99227.75;;;-4.67;100.00
32083;BME280;18597;48.328;7.932;2024-01-16T02:55:55;99233.66;;;-4.60;100.00
32083;BME280;18597;48.328;7.932;2024-01-16T02:58:26;99239.22;;;-4.72;100.00
32083;BME280;18597;48.328;7.932;2024-01-16T03:00:52;99233.84;;;-4.96;100.00
32083;BME280;18597;48.328;7.932;2024-01-16T03:03:19;99234.91;;;-5.03;100.00
32083;BME280;18597;48.328;7.932;2024-01-16T03:05:46;99237.22;;;-4.94;100.00
32083;BME280;18597;48.328;7.932;2024-01-16T03:08:12;99238.03;;;-4.92;100.00
32083;BME280;18597;48.328;7.932;2024-01-16T03:10:38;99245.84;;;-5.21;100.00
32083;BME280;18597;48.328;7.932;2024-01-16T03:13:05;99239.88;;;-5.25;100.00
32083;BME280;18597;48.328;7.932;2024-01-16T03:15:30;99250.00;;;-5.47;100.00
32083;BME280;18597;48.328;7.932;2024-01-16T03:17:58;99248.59;;;-5.59;100.00
32083;BME280;18597;48.328;7.932;2024-01-16T03:20:24;99248.94;;;-5.72;100.00
32083;BME280;18597;48.328;7.932;2024-01-16T03:22:50;99244.59;;;-5.72;100.00
32083;BME280;18597;48.328;7.932;2024-01-16T03:25:17;99234.31;;;-5.44;100.00
32083;BME280;18597;48.328;7.932;2024-01-16T03:27:43;99232.44;;;-5.39;100.00
32083;BME280;18597;48.328;7.932;2024-01-16T03:30:10;99238.19;;;-5.59;100.00
32083;BME280;18597;48.328;7.932;2024-01-16T03:32:38;99230.38;;;-5.59;100.00
32083;BME280;18597;48.328;7.932;2024-01-16T03:35:05;99230.84;;;-5.77;100.00
32083;BME280;18597;48.328;7.932;2024-01-16T03:37:32;99235.25;;;-6.13;100.00
32083;BME280;18597;48.328;7.932;2024-01-16T03:39:58;99232.66;;;-6.13;100.00
32083;BME280;18597;48.328;7.932;2024-01-16T03:42:24;99236.50;;;-6.29;100.00
32083;BME280;18597;48.328;7.932;2024-01-16T03:44:50;99232.44;;;-6.39;100.00
32083;BME280;18597;48.328;7.932;2024-01-16T03:47:17;99236.06;;;-6.47;100.00
32083;BME280;18597;48.328;7.932;2024-01-16T03:49:43;99232.38;;;-6.38;100.00
32083;BME280;18597;48.328;7.932;2024-01-16T03:52:09;99229.38;;;-6.21;100.00
32083;BME280;18597;48.328;7.932;2024-01-16T03:54:34;99226.34;;;-6.38;100.00
32083;BME280;18597;48.328;7.932;2024-01-16T03:57:00;99225.22;;;-6.28;100.00
32083;BME280;18597;48.328;7.932;2024-01-16T03:59:26;99225.13;;;-6.24;100.00
32083;BME280;18597;48.328;7.932;2024-01-16T04:01:52;99215.94;;;-6.03;100.00
32083;BME280;18597;48.328;7.932;2024-01-16T04:04:18;99218.03;;;-5.84;100.00
32083;BME280;18597;48.328;7.932;2024-01-16T04:06:44;99222.06;;;-6.05;100.00
32083;BME280;18597;48.328;7.932;2024-01-16T04:09:10;99219.41;;;-6.38;100.00
32083;BME280;18597;48.328;7.932;2024-01-16T04:11:36;99222.19;;;-6.10;100.00
32083;BME280;18597;48.328;7.932;2024-01-16T04:14:02;99214.34;;;-6.08;100.00
32083;BME280;18597;48.328;7.932;2024-01-16T04:16:28;99224.28;;;-6.24;100.00
32083;BME280;18597;48.328;7.932;2024-01-16T04:18:54;99224.31;;;-6.27;100.00
32083;BME280;18597;48.328;7.932;2024-01-16T04:21:20;99215.94;;;-6.03;100.00
32083;BME280;18597;48.328;7.932;2024-01-16T04:23:46;99210.56;;;-5.95;100.00
32083;BME280;18597;48.328;7.932;2024-01-16T04:26:11;99202.81;;;-5.98;100.00
32083;BME280;18597;48.328;7.932;2024-01-16T04:28:37;99205.75;;;-6.10;100.00
32083;BME280;18597;48.328;7.932;2024-01-16T04:31:04;99208.94;;;-6.01;100.00
32083;BME280;18597;48.328;7.932;2024-01-16T04:33:30;99203.44;;;-5.90;100.00
32083;BME280;18597;48.328;7.932;2024-01-16T04:35:56;99206.78;;;-6.18;100.00
32083;BME280;18597;48.328;7.932;2024-01-16T04:38:22;99206.72;;;-6.16;100.00
32083;BME280;18597;48.328;7.932;2024-01-16T04:40:50;99210.97;;;-6.48;100.00
32083;BME280;18597;48.328;7.932;2024-01-16T04:43:16;99213.19;;;-6.69;100.00
32083;BME280;18597;48.328;7.932;2024-01-16T04:45:42;99205.00;;;-6.53;100.00
32083;BME280;18597;48.328;7.932;2024-01-16T04:48:08;99210.47;;;-6.65;100.00
32083;BME280;18597;48.328;7.932;2024-01-16T04:50:35;99205.19;;;-6.60;100.00
32083;BME280;18597;48.328;7.932;2024-01-16T04:53:02;99194.75;;;-6.57;100.00
32083;BME280;18597;48.328;7.932;2024-01-16T04:55:29;99188.66;;;-6.58;100.00
32083;BME280;18597;48.328;7.932;2024-01-16T04:57:55;99182.78;;;-6.64;100.00
32083;BME280;18597;48.328;7.932;2024-01-16T05:00:22;99180.63;;;-6.47;100.00
32083;BME280;18597;48.328;7.932;2024-01-16T05:02:48;99179.47;;;-6.35;100.00
32083;BME280;18597;48.328;7.932;2024-01-16T05:05:14;99184.38;;;-6.59;100.00
32083;BME280;18597;48.328;7.932;2024-01-16T05:07:41;99175.75;;;-6.61;100.00
32083;BME280;18597;48.328;7.932;2024-01-16T05:10:10;99171.81;;;-6.77;100.00
32083;BME280;18597;48.328;7.932;2024-01-16T05:12:39;99177.00;;;-6.77;100.00
32083;BME280;18597;48.328;7.932;2024-01-16T05:15:06;99180.53;;;-6.80;100.00
32083;BME280;18597;48.328;7.932;2024-01-16T05:17:33;99176.03;;;-6.73;100.00
32083;BME280;18597;48.328;7.932;2024-01-16T05:19:59;99176.38;;;-6.88;100.00
32083;BME280;18597;48.328;7.932;2024-01-16T05:22:25;99175.44;;;-6.84;100.00
32083;BME280;18597;48.328;7.932;2024-01-16T05:24:51;99169.34;;;-6.83;100.00
32083;BME280;18597;48.328;7.932;2024-01-16T05:27:17;99171.19;;;-6.87;100.00
32083;BME280;18597;48.328;7.932;2024-01-16T05:29:43;99172.75;;;-6.81;100.00
32083;BME280;18597;48.328;7.932;2024-01-16T05:32:09;99168.75;;;-6.57;100.00
32083;BME280;18597;48.328;7.932;2024-01-16T05:34:34;99162.88;;;-6.65;100.00
32083;BME280;18597;48.328;7.932;2024-01-16T05:37:00;99157.94;;;-6.76;100.00
32083;BME280;18597;48.328;7.932;2024-01-16T05:39:26;99151.53;;;-6.61;100.00
32083;BME280;18597;48.328;7.932;2024-01-16T05:41:52;99158.69;;;-6.71;100.00
32083;BME280;18597;48.328;7.932;2024-01-16T05:44:18;99155.38;;;-6.78;100.00
32083;BME280;18597;48.328;7.932;2024-01-16T05:46:44;99151.03;;;-6.77;100.00
32083;BME280;18597;48.328;7.932;2024-01-16T05:49:09;99147.84;;;-6.90;100.00
32083;BME280;18597;48.328;7.932;2024-01-16T05:51:35;99139.22;;;-6.90;100.00
32083;BME280;18597;48.328;7.932;2024-01-16T05:54:02;99136.47;;;-6.84;100.00
32083;BME280;18597;48.328;7.932;2024-01-16T05:56:31;99146.09;;;-6.89;100.00
32083;BME280;18597;48.328;7.932;2024-01-16T05:58:56;99143.78;;;-7.00;100.00
32083;BME280;18597;48.328;7.932;2024-01-16T06:01:22;99137.78;;;-7.04;100.00
32083;BME280;18597;48.328;7.932;2024-01-16T06:03:48;99140.09;;;-6.91;100.00
32083;BME280;18597;48.328;7.932;2024-01-16T06:06:14;99148.66;;;-6.86;100.00
32083;BME280;18597;48.328;7.932;2024-01-16T06:08:40;99141.53;;;-6.78;100.00
32083;BME280;18597;48.328;7.932;2024-01-16T06:11:06;99152.38;;;-6.98;100.00
32083;BME280;18597;48.328;7.932;2024-01-16T06:13:32;99139.00;;;-6.81;100.00
32083;BME280;18597;48.328;7.932;2024-01-16T06:15:58;99148.31;;;-6.71;100.00
32083;BME280;18597;48.328;7.932;2024-01-16T06:18:24;99129.25;;;-6.72;100.00
32083;BME280;18597;48.328;7.932;2024-01-16T06:20:50;99135.44;;;-6.77;100.00
32083;BME280;18597;48.328;7.932;2024-01-16T06:23:16;99140.19;;;-6.96;100.00
32083;BME280;18597;48.328;7.932;2024-01-16T06:25:41;99147.31;;;-7.04;100.00
32083;BME280;18597;48.328;7.932;2024-01-16T06:28:07;99154.19;;;-7.02;100.00
32083;BME280;18597;48.328;7.932;2024-01-16T06:30:33;99153.63;;;-6.77;100.00
32083;BME280;18597;48.328;7.932;2024-01-16T06:33:00;99151.25;;;-6.88;100.00
32083;BME280;18597;48.328;7.932;2024-01-16T06:35:26;99139.84;;;-6.81;100.00
32083;BME280;18597;48.328;7.932;2024-01-16T06:37:51;99141.41;;;-6.72;100.00
32083;BME280;18597;48.328;7.932;2024-01-16T06:40:17;99151.81;;;-6.74;100.00
32083;BME280;18597;48.328;7.932;2024-01-16T06:42:43;99143.63;;;-6.57;100.00
32083;BME280;18597;48.328;7.932;2024-01-16T06:45:09;99144.47;;;-6.56;100.00
32083;BME280;18597;48.328;7.932;2024-01-16T06:47:35;99151.25;;;-6.51;100.00
32083;BME280;18597;48.328;7.932;2024-01-16T06:50:01;99150.38;;;-6.50;100.00
32083;BME280;18597;48.328;7.932;2024-01-16T06:52:27;99141.59;;;-6.46;100.00
32083;BME280;18597;48.328;7.932;2024-01-16T06:54:53;99136.56;;;-6.52;100.00
32083;BME280;18597;48.328;7.932;2024-01-16T06:57:20;99142.41;;;-6.42;100.00
32083;BME280;18597;48.328;7.932;2024-01-16T06:59:46;99138.81;;;-6.38;100.00
32083;BME280;18597;48.328;7.932;2024-01-16T07:02:12;99133.28;;;-6.60;100.00
32083;BME280;18597;48.328;7.932;2024-01-16T07:04:38;99134.41;;;-6.70;100.00
32083;BME280;18597;48.328;7.932;2024-01-16T07:07:04;99145.88;;;-6.80;100.00
32083;BME280;18597;48.328;7.932;2024-01-16T07:09:29;99135.81;;;-6.92;100.00
32083;BME280;18597;48.328;7.932;2024-01-16T07:11:55;99136.75;;;-6.96;100.00
32083;BME280;18597;48.328;7.932;2024-01-16T07:14:21;99135.44;;;-6.77;100.00
32083;BME280;18597;48.328;7.932;2024-01-16T07:16:47;99135.59;;;-6.83;100.00
32083;BME280;18597;48.328;7.932;2024-01-16T07:19:13;99139.88;;;-6.82;100.00
32083;BME280;18597;48.328;7.932;2024-01-16T07:21:41;99128.47;;;-6.75;100.00
32083;BME280;18597;48.328;7.932;2024-01-16T07:24:08;99140.56;;;-6.74;100.00
32083;BME280;18597;48.328;7.932;2024-01-16T07:26:33;99135.78;;;-6.55;100.00
32083;BME280;18597;48.328;7.932;2024-01-16T07:28:59;99137.41;;;-6.50;100.00
32083;BME280;18597;48.328;7.932;2024-01-16T07:31:25;99139.81;;;-6.44;100.00
32083;BME280;18597;48.328;7.932;2024-01-16T07:33:51;99142.28;;;-6.37;100.00
32083;BME280;18597;48.328;7.932;2024-01-16T07:36:17;99149.78;;;-6.25;100.00
32083;BME280;18597;48.328;7.932;2024-01-16T07:38:43;99154.31;;;-6.33;100.00
32083;BME280;18597;48.328;7.932;2024-01-16T07:41:09;99151.81;;;-6.38;100.00
32083;BME280;18597;48.328;7.932;2024-01-16T07:43:35;99155.16;;;-6.33;100.00
32083;BME280;18597;48.328;7.932;2024-01-16T07:46:01;99161.94;;;-6.27;100.00
32083;BME280;18597;48.328;7.932;2024-01-16T07:48:27;99163.00;;;-6.34;100.00
32083;BME280;18597;48.328;7.932;2024-01-16T07:50:53;99161.84;;;-6.23;100.00
32083;BME280;18597;48.328;7.932;2024-01-16T07:53:18;99166.22;;;-6.25;100.00
32083;BME280;18597;48.328;7.932;2024-01-16T07:55:44;99165.84;;;-6.09;100.00
32083;BME280;18597;48.328;7.932;2024-01-16T07:58:11;99167.53;;;-6.08;100.00
32083;BME280;18597;48.328;7.932;2024-01-16T08:00:37;99170.44;;;-6.21;100.00
32083;BME280;18597;48.328;7.932;2024-01-16T08:03:07;99168.78;;;-6.23;100.00
32083;BME280;18597;48.328;7.932;2024-01-16T08:05:33;99161.41;;;-6.06;100.00
32083;BME280;18597;48.328;7.932;2024-01-16T08:07:59;99148.88;;;-5.92;100.00
32083;BME280;18597;48.328;7.932;2024-01-16T08:10:25;99149.50;;;-5.83;100.00
32083;BME280;18597;48.328;7.932;2024-01-16T08:12:51;99155.75;;;-5.58;100.00
32083;BME280;18597;48.328;7.932;2024-01-16T08:15:17;99154.59;;;-5.48;100.00
32083;BME280;18597;48.328;7.932;2024-01-16T08:17:43;99154.84;;;-5.26;100.00
32083;BME280;18597;48.328;7.932;2024-01-16T08:20:09;99142.31;;;-5.13;100.00
32083;BME280;18597;48.328;7.932;2024-01-16T08:22:37;99148.00;;;-4.72;100.00
32083;BME280;18597;48.328;7.932;2024-01-16T08:25:03;99142.78;;;-4.46;100.00
32083;BME280;18597;48.328;7.932;2024-01-16T08:27:31;99138.06;;;-4.61;100.00
32083;BME280;18597;48.328;7.932;2024-01-16T08:29:57;99142.00;;;-4.76;100.00
32083;BME280;18597;48.328;7.932;2024-01-16T08:32:23;99130.31;;;-4.63;100.00
32083;BME280;18597;48.328;7.932;2024-01-16T08:34:48;99127.88;;;-4.14;100.00
32083;BME280;18597;48.328;7.932;2024-01-16T08:37:14;99124.66;;;-3.98;100.00
32083;BME280;18597;48.328;7.932;2024-01-16T08:39:40;99124.66;;;-3.98;100.00
32083;BME280;18597;48.328;7.932;2024-01-16T08:42:07;99118.38;;;-3.92;100.00
32083;BME280;18597;48.328;7.932;2024-01-16T08:44:33;99120.88;;;-3.89;100.00
32083;BME280;18597;48.328;7.932;2024-01-16T08:46:59;99124.44;;;-3.67;100.00
32083;BME280;18597;48.328;7.932;2024-01-16T08:49:27;99125.50;;;-3.49;100.00
32083;BME280;18597;48.328;7.932;2024-01-16T08:51:53;99121.72;;;-3.40;100.00
32083;BME280;18597;48.328;7.932;2024-01-16T08:54:19;99115.13;;;-3.50;100.00
32083;BME280;18597;48.328;7.932;2024-01-16T08:56:45;99118.72;;;-3.53;100.00
32083;BME280;18597;48.328;7.932;2024-01-16T08:59:10;99114.13;;;-3.46;100.00
32083;BME280;18597;48.328;7.932;2024-01-16T09:01:36;99105.66;;;-3.29;100.00
32083;BME280;18597;48.328;7.932;2024-01-16T09:04:02;99106.00;;;-3.15;100.00
32083;BME280;18597;48.328;7.932;2024-01-16T09:06:28;99102.53;;;-3.16;100.00
32083;BME280;18597;48.328;7.932;2024-01-16T09:08:54;99101.81;;;-2.97;100.00
32083;BME280;18597;48.328;7.932;2024-01-16T09:11:20;99113.50;;;-2.84;100.00
32083;BME280;18597;48.328;7.932;2024-01-16T09:13:46;99118.66;;;-2.83;100.00
32083;BME280;18597;48.328;7.932;2024-01-16T09:16:12;99125.34;;;-2.75;100.00
32083;BME280;18597;48.328;7.932;2024-01-16T09:18:37;99127.34;;;-2.60;100.00
32083;BME280;18597;48.328;7.932;2024-01-16T09:21:03;99128.69;;;-2.72;100.00
32083;BME280;18597;48.328;7.932;2024-01-16T09:23:29;99123.16;;;-2.86;100.00
32083;BME280;18597;48.328;7.932;2024-01-16T09:25:55;99116.78;;;-2.79;100.00
32083;BME280;18597;48.328;7.932;2024-01-16T09:28:21;99118.09;;;-2.69;100.00
32083;BME280;18597;48.328;7.932;2024-01-16T09:30:47;99105.03;;;-2.69;100.00
32083;BME280;18597;48.328;7.932;2024-01-16T09:33:12;99117.66;;;-2.80;100.00
32083;BME280;18597;48.328;7.932;2024-01-16T09:35:39;99114.50;;;-2.88;100.00
32083;BME280;18597;48.328;7.932;2024-01-16T09:38:04;99104.34;;;-2.74;100.00
32083;BME280;18597;48.328;7.932;2024-01-16T09:40:31;99097.88;;;-2.86;100.00
32083;BME280;18597;48.328;7.932;2024-01-16T09:42:57;99107.19;;;-2.78;100.00
32083;BME280;18597;48.328;7.932;2024-01-16T09:45:25;99102.25;;;-2.64;100.00
32083;BME280;18597;48.328;7.932;2024-01-16T09:47:51;99089.94;;;-2.40;100.00
32083;BME280;18597;48.328;7.932;2024-01-16T09:50:19;99084.69;;;-2.20;100.00
32083;BME280;18597;48.328;7.932;2024-01-16T09:52:46;99082.88;;;-2.18;100.00
32083;BME280;18597;48.328;7.932;2024-01-16T09:55:14;99085.19;;;-2.10;100.00
32083;BME280;18597;48.328;7.932;2024-01-16T09:57:41;99089.06;;;-2.20;100.00
32083;BME280;18597;48.328;7.932;2024-01-16T10:00:10;99087.28;;;-2.18;100.00
32083;BME280;18597;48.328;7.932;2024-01-16T10:02:42;99084.03;;;-2.05;100.00
32083;BME280;18597;48.328;7.932;2024-01-16T10:05:10;99082.28;;;-2.04;100.00
32083;BME280;18597;48.328;7.932;2024-01-16T10:07:38;99084.63;;;-1.98;100.00
32083;BME280;18597;48.328;7.932;2024-01-16T10:10:05;99070.03;;;-1.83;100.00
32083;BME280;18597;48.328;7.932;2024-01-16T10:12:32;99076.31;;;-1.87;100.00
32083;BME280;18597;48.328;7.932;2024-01-16T10:14:59;99086.47;;;-1.80;100.00
32083;BME280;18597;48.328;7.932;2024-01-16T10:17:41;99092.97;;;-1.88;100.00
32083;BME280;18597;48.328;7.932;2024-01-16T10:20:10;99085.88;;;-1.86;100.00
32083;BME280;18597;48.328;7.932;2024-01-16T10:22:53;99080.63;;;-1.86;100.00
32083;BME280;18597;48.328;7.932;2024-01-16T10:25:19;99078.78;;;-1.84;100.00
32083;BME280;18597;48.328;7.932;2024-01-16T10:27:47;99066.22;;;-1.76;100.00
32083;BME280;18597;48.328;7.932;2024-01-16T10:30:13;99062.28;;;-1.66;100.00
32083;BME280;18597;48.328;7.932;2024-01-16T10:32:41;99070.66;;;-1.58;100.00
32083;BME280;18597;48.328;7.932;2024-01-16T10:35:13;99065.91;;;-1.50;100.00
32083;BME280;18597;48.328;7.932;2024-01-16T10:37:47;99067.25;;;-1.41;100.00
32083;BME280;18597;48.328;7.932;2024-01-16T10:40:18;99074.59;;;-1.30;100.00
32083;BME280;18597;48.328;7.932;2024-01-16T10:42:45;99068.94;;;-1.21;100.00
32083;BME280;18597;48.328;7.932;2024-01-16T10:45:18;99060.03;;;-1.17;100.00
32083;BME280;18597;48.328;7.932;2024-01-16T10:47:46;99068.53;;;-1.12;100.00
32083;BME280;18597;48.328;7.932;2024-01-16T10:50:12;99059.66;;;-0.91;100.00
32083;BME280;18597;48.328;7.932;2024-01-16T10:52:47;99055.00;;;-0.86;100.00
32083;BME280;18597;48.328;7.932;2024-01-16T10:55:21;99056.97;;;-0.72;100.00
32083;BME280;18597;48.328;7.932;2024-01-16T10:57:49;99046.69;;;-0.76;100.00
32083;BME280;18597;48.328;7.932;2024-01-16T11:00:19;99046.28;;;-0.67;100.00
32083;BME280;18597;48.328;7.932;2024-01-16T11:02:59;99047.03;;;-0.48;100.00
32083;BME280;18597;48.328;7.932;2024-01-16T11:05:28;99050.91;;;-0.55;100.00
32083;BME280;18597;48.328;7.932;2024-01-16T11:07:59;99050.81;;;-0.53;100.00
32083;BME280;18597;48.328;7.932;2024-01-16T11:10:27;99041.78;;;-0.48;100.00
32083;BME280;18597;48.328;7.932;2024-01-16T11:12:55;99037.56;;;-0.50;100.00
32083;BME280;18597;48.328;7.932;2024-01-16T11:15:21;99041.28;;;-0.37;100.00
32083;BME280;18597;48.328;7.932;2024-01-16T11:17:48;99033.00;;;-0.30;100.00
32083;BME280;18597;48.328;7.932;2024-01-16T11:20:15;99028.75;;;-0.32;100.00
32083;BME280;18597;48.328;7.932;2024-01-16T11:22:43;99026.97;;;-0.14;100.00
32083;BME280;18597;48.328;7.932;2024-01-16T11:25:14;99022.78;;;-0.01;100.00
32083;BME280;18597;48.328;7.932;2024-01-16T11:27:42;99015.03;;;0.13;100.00
32083;BME280;18597;48.328;7.932;2024-01-16T11:30:10;99007.47;;;0.07;100.00
32083;BME280;18597;48.328;7.932;2024-01-16T11:32:41;99005.72;;;0.08;100.00
32083;BME280;18597;48.328;7.932;2024-01-16T11:35:09;99006.03;;;0.02;100.00
32083;BME280;18597;48.328;7.932;2024-01-16T11:37:41;99000.50;;;0.06;100.00
32083;BME280;18597;48.328;7.932;2024-01-16T11:40:24;98988.09;;;0.10;100.00
32083;BME280;18597;48.328;7.932;2024-01-16T11:42:53;98990.66;;;0.27;100.00
32083;BME280;18597;48.328;7.932;2024-01-16T11:48:16;98974.16;;;0.41;100.00
32083;BME280;18597;48.328;7.932;2024-01-16T11:50:43;98970.84;;;0.53;100.00
32083;BME280;18597;48.328;7.932;2024-01-16T11:53:09;98969.75;;;0.57;100.00
32083;BME280;18597;48.328;7.932;2024-01-16T11:56:10;98967.09;;;0.57;100.00
32083;BME280;18597;48.328;7.932;2024-01-16T12:01:11;98956.34;;;0.62;100.00
32083;BME280;18597;48.328;7.932;2024-01-16T12:03:38;98945.41;;;0.53;100.00
32083;BME280;18597;48.328;7.932;2024-01-16T12:06:03;98943.03;;;0.49;100.00
32083;BME280;18597;48.328;7.932;2024-01-16T12:08:32;98937.59;;;0.52;100.00
32083;BME280;18597;48.328;7.932;2024-01-16T12:10:58;98933.53;;;0.62;100.00
32083;BME280;18597;48.328;7.932;2024-01-16T12:13:25;98922.50;;;0.71;100.00
32083;BME280;18597;48.328;7.932;2024-01-16T12:16:06;98912.19;;;0.68;100.00
32083;BME280;18597;48.328;7.932;2024-01-16T12:18:32;98904.59;;;0.78;100.00
32083;BME280;18597;48.328;7.932;2024-01-16T12:21:09;98908.22;;;0.91;100.00
32083;BME280;18597;48.328;7.932;2024-01-16T12:23:35;98898.16;;;0.83;100.00
32083;BME280;18597;48.328;7.932;2024-01-16T12:26:01;98896.50;;;0.97;100.00
32083;BME280;18597;48.328;7.932;2024-01-16T12:28:29;98895.09;;;0.91;100.00
32083;BME280;18597;48.328;7.932;2024-01-16T12:30:54;98889.38;;;0.83;100.00
32083;BME280;18597;48.328;7.932;2024-01-16T12:33:22;98884.03;;;1.00;100.00
32083;BME280;18597;48.328;7.932;2024-01-16T12:35:48;98887.31;;;1.04;100.00
32083;BME280;18597;48.328;7.932;2024-01-16T12:38:15;98886.00;;;1.11;100.00
32083;BME280;18597;48.328;7.932;2024-01-16T12:40:49;98882.22;;;1.01;100.00
32083;BME280;18597;48.328;7.932;2024-01-16T12:43:17;98882.50;;;0.96;100.00
32083;BME280;18597;48.328;7.932;2024-01-16T12:45:44;98874.50;;;0.98;100.00
32083;BME280;18597;48.328;7.932;2024-01-16T12:48:11;98878.84;;;0.99;100.00
32083;BME280;18597;48.328;7.932;2024-01-16T12:50:37;98869.47;;;1.09;100.00
32083;BME280;18597;48.328;7.932;2024-01-16T12:53:11;98872.84;;;1.11;100.00
32083;BME280;18597;48.328;7.932;2024-01-16T12:55:39;98877.13;;;0.98;100.00